Ustick, Illinois
Current Conditions -  °F | °C
As of 2:35 PM on Wednesday 26 Nov 2014 (Local Time) from KSQI Reporting Station
Overcast Overcast  
Wind Chill: -5°   Ceiling: 1500
Heat Index: -2°   Visibility: 10mi
Dew Point: -6°   Wind: 6mph
Humidity: 74%   Direction: 130°SE
Pressure: 30.1"   Gusts: NA
Location:  41.8285°N, 89.9656°W
Report Text: KSQI 262035Z 13005KT 10SM OVC015 M02/M06 A3010 RMK AO1
Loading
Personal Weather Stations






























Interactive Weather Map New forecast layout! Learn more

10-Day Weather Forecast

Advertisements
Track Severe Weather on mobile